createdAt,value
2023-05-09T00:01:14.440Z,17.40
2023-05-09T00:03:40.930Z,17.67
2023-05-09T00:06:07.273Z,15.05
2023-05-09T00:08:33.636Z,16.15
2023-05-09T00:11:04.692Z,17.48
2023-05-09T00:13:30.891Z,15.75
2023-05-09T00:15:59.629Z,16.42
2023-05-09T00:18:32.687Z,15.45
2023-05-09T00:20:59.010Z,15.98
2023-05-09T00:23:25.390Z,16.02
2023-05-09T00:25:52.813Z,13.65
2023-05-09T00:28:19.090Z,15.50
2023-05-09T00:30:45.758Z,13.57
2023-05-09T00:33:12.114Z,14.45
2023-05-09T00:35:38.395Z,15.90
2023-05-09T00:38:04.693Z,15.25
2023-05-09T00:40:31.113Z,13.93
2023-05-09T00:42:58.688Z,16.60
2023-05-09T00:45:25.133Z,17.88
2023-05-09T00:47:54.405Z,15.00
2023-05-09T00:50:20.927Z,15.40
2023-05-09T00:52:50.353Z,15.95
2023-05-09T00:55:17.022Z,14.13
2023-05-09T00:57:43.389Z,15.88
2023-05-09T01:00:10.046Z,15.95
2023-05-09T01:02:36.376Z,17.42
2023-05-09T01:05:02.771Z,16.48
2023-05-09T01:07:47.648Z,16.02
2023-05-09T01:10:13.975Z,18.08
2023-05-09T01:12:49.818Z,17.63
2023-05-09T01:15:46.846Z,17.35
2023-05-09T01:18:19.477Z,18.33
2023-05-09T01:20:47.339Z,17.52
2023-05-09T01:23:32.518Z,18.08
2023-05-09T01:26:05.432Z,18.38
2023-05-09T01:28:34.789Z,19.48
2023-05-09T01:31:01.818Z,18.80
2023-05-09T01:33:28.877Z,18.92
2023-05-09T01:36:02.476Z,18.60
2023-05-09T01:38:30.622Z,19.23
2023-05-09T01:40:57.964Z,18.40
2023-05-09T01:43:25.495Z,17.83
2023-05-09T01:45:52.306Z,20.08
2023-05-09T01:48:21.639Z,18.63
2023-05-09T01:50:50.159Z,19.75
2023-05-09T01:53:19.743Z,18.58
2023-05-09T01:55:48.333Z,18.55
2023-05-09T01:58:18.147Z,17.40
2023-05-09T02:00:45.345Z,18.98
2023-05-09T02:03:14.367Z,17.67
2023-05-09T02:05:41.294Z,18.40
2023-05-09T02:08:10.485Z,18.02
2023-05-09T02:10:37.728Z,18.92
2023-05-09T02:13:04.220Z,18.90
2023-05-09T02:15:30.715Z,17.38
2023-05-09T02:17:57.061Z,19.60
2023-05-09T02:20:23.409Z,18.27
2023-05-09T02:22:50.199Z,18.65
2023-05-09T02:25:16.995Z,18.48
2023-05-09T02:27:47.258Z,19.98
2023-05-09T02:30:24.009Z,18.27
2023-05-09T02:32:51.816Z,19.77
2023-05-09T02:35:18.656Z,19.73
2023-05-09T02:37:47.384Z,19.45
2023-05-09T02:40:13.725Z,18.67
2023-05-09T02:42:39.985Z,17.50
2023-05-09T02:45:06.639Z,17.85
2023-05-09T02:47:34.397Z,16.27
2023-05-09T02:50:02.503Z,17.00
2023-05-09T02:52:30.846Z,15.27
2023-05-09T02:54:57.065Z,16.33
2023-05-09T02:57:24.521Z,16.48
2023-05-09T02:59:50.823Z,15.82
2023-05-09T03:02:17.129Z,17.50
2023-05-09T03:04:43.556Z,18.30
2023-05-09T03:07:09.990Z,19.13
2023-05-09T03:09:36.289Z,18.23
2023-05-09T03:12:02.940Z,17.48
2023-05-09T03:14:32.495Z,18.85
2023-05-09T03:16:58.721Z,17.60
2023-05-09T03:19:25.005Z,18.45
2023-05-09T03:21:53.895Z,18.95
2023-05-09T03:24:20.262Z,17.58
2023-05-09T03:26:46.504Z,18.73
2023-05-09T03:29:12.761Z,20.35
2023-05-09T03:31:39.048Z,19.45
2023-05-09T03:34:05.430Z,18.77
2023-05-09T03:36:34.325Z,20.35
2023-05-09T03:41:41.968Z,20.45
2023-05-09T03:44:08.255Z,18.58
2023-05-09T03:46:38.213Z,19.23
2023-05-09T03:49:04.560Z,19.25
2023-05-09T03:51:30.815Z,20.02
2023-05-09T03:53:57.113Z,20.55
2023-05-09T03:56:27.425Z,19.20
2023-05-09T03:58:53.686Z,18.85
2023-05-09T04:01:30.004Z,18.05
2023-05-09T04:03:59.316Z,17.67
2023-05-09T04:06:26.905Z,18.85
2023-05-09T04:08:53.374Z,17.42
2023-05-09T04:11:22.137Z,17.85
2023-05-09T04:13:49.283Z,16.17
2023-05-09T04:16:15.516Z,16.48
2023-05-09T04:18:41.721Z,17.05
2023-05-09T04:21:10.474Z,15.85
2023-05-09T04:23:36.754Z,18.25
2023-05-09T04:26:03.007Z,17.67
2023-05-09T04:28:32.126Z,17.92
2023-05-09T04:30:58.398Z,17.40
2023-05-09T04:33:27.265Z,17.45
2023-05-09T04:35:55.563Z,16.60
2023-05-09T04:38:21.808Z,14.90
2023-05-09T04:40:48.110Z,14.20
2023-05-09T04:43:14.632Z,13.75
2023-05-09T04:45:43.866Z,15.35
2023-05-09T04:48:12.446Z,16.15
2023-05-09T04:50:38.682Z,15.38
2023-05-09T04:53:04.924Z,14.68
2023-05-09T04:55:33.988Z,15.73
2023-05-09T04:58:05.610Z,14.77
2023-05-09T05:00:32.073Z,13.82
2023-05-09T05:02:58.634Z,15.18
2023-05-09T05:05:28.197Z,14.32
2023-05-09T05:07:56.120Z,14.48
2023-05-09T05:10:22.545Z,12.70
2023-05-09T05:12:48.849Z,14.23
2023-05-09T05:15:17.379Z,15.43
2023-05-09T05:17:46.114Z,14.05
2023-05-09T05:20:12.454Z,13.38
2023-05-09T05:22:39.855Z,13.60
2023-05-09T05:25:08.697Z,12.32
2023-05-09T05:27:34.970Z,13.30
2023-05-09T05:30:01.301Z,12.52
2023-05-09T05:32:27.639Z,13.02
2023-05-09T05:34:53.870Z,12.07
2023-05-09T05:37:20.129Z,13.68
2023-05-09T05:39:50.626Z,12.73
2023-05-09T05:42:17.395Z,12.93
2023-05-09T05:44:44.945Z,12.35
2023-05-09T05:47:13.560Z,11.27
2023-05-09T05:49:42.536Z,12.10
2023-05-09T05:52:09.974Z,12.73
2023-05-09T05:54:38.007Z,12.80
2023-05-09T05:57:04.404Z,11.30
2023-05-09T05:59:31.748Z,10.98
2023-05-09T06:02:02.598Z,13.57
2023-05-09T06:04:28.895Z,11.57
2023-05-09T06:06:58.198Z,11.77
2023-05-09T06:09:24.495Z,11.75
2023-05-09T06:11:51.178Z,11.10
2023-05-09T06:14:17.815Z,11.38
2023-05-09T06:16:44.122Z,10.75
2023-05-09T06:19:10.708Z,13.18
2023-05-09T06:21:38.361Z,10.80
2023-05-09T06:24:14.229Z,12.02
2023-05-09T06:26:46.395Z,12.93
2023-05-09T06:29:12.658Z,11.73
2023-05-09T06:31:41.451Z,13.60
2023-05-09T06:34:08.012Z,11.90
2023-05-09T06:36:34.695Z,11.30
2023-05-09T06:39:01.287Z,11.40
2023-05-09T06:41:31.048Z,12.65
2023-05-09T06:43:59.592Z,12.57
2023-05-09T06:46:25.949Z,11.68
2023-05-09T06:48:52.430Z,11.48
2023-05-09T06:51:22.648Z,12.07
2023-05-09T06:53:49.005Z,9.85
2023-05-09T06:56:22.908Z,13.38
2023-05-09T06:58:49.533Z,10.23
2023-05-09T07:01:15.798Z,11.07
2023-05-09T07:03:42.088Z,11.75
2023-05-09T07:06:08.848Z,10.15
2023-05-09T07:08:35.105Z,11.85
2023-05-09T07:11:01.625Z,11.25
2023-05-09T07:13:30.188Z,12.35
2023-05-09T07:15:56.548Z,12.35
2023-05-09T07:18:23.449Z,13.32
2023-05-09T07:20:52.083Z,11.30
2023-05-09T07:23:19.852Z,12.30
2023-05-09T07:25:46.058Z,10.75
2023-05-09T07:28:12.326Z,11.95
2023-05-09T07:33:18.837Z,10.25
2023-05-09T07:35:45.096Z,11.80
2023-05-09T07:38:12.425Z,12.20
2023-05-09T07:40:48.755Z,11.32
2023-05-09T07:45:41.456Z,10.73
2023-05-09T07:48:09.169Z,11.27
2023-05-09T07:50:35.472Z,10.65
2023-05-09T07:53:01.734Z,10.32
2023-05-09T07:55:28.311Z,11.00
2023-05-09T07:57:59.234Z,12.48
2023-05-09T08:00:25.575Z,12.23
2023-05-09T08:02:52.041Z,10.77
2023-05-09T08:05:18.552Z,11.02
2023-05-09T08:07:45.071Z,11.65
2023-05-09T08:10:13.778Z,11.93
2023-05-09T08:12:50.762Z,11.15
2023-05-09T08:15:24.611Z,10.73
2023-05-09T08:17:50.908Z,11.65
2023-05-09T08:20:18.193Z,11.27
2023-05-09T08:22:47.405Z,10.68
2023-05-09T08:25:15.007Z,11.10
2023-05-09T08:27:41.431Z,11.50
2023-05-09T08:30:08.918Z,9.98
2023-05-09T08:32:42.459Z,11.68
2023-05-09T08:35:11.363Z,10.02
2023-05-09T08:37:40.646Z,9.98
2023-05-09T08:40:07.246Z,10.75
2023-05-09T08:42:36.046Z,9.90
2023-05-09T08:45:08.928Z,11.32
2023-05-09T08:47:36.949Z,9.52
2023-05-09T08:50:03.678Z,8.80
2023-05-09T08:52:32.884Z,9.63
2023-05-09T08:55:03.951Z,8.57
2023-05-09T08:57:32.497Z,7.50
2023-05-09T08:59:59.170Z,9.43
2023-05-09T09:02:25.440Z,9.70
2023-05-09T09:04:51.739Z,10.20
2023-05-09T09:07:19.286Z,9.27
2023-05-09T09:09:48.839Z,8.57
2023-05-09T09:12:23.497Z,8.18
2023-05-09T09:14:56.448Z,8.65
2023-05-09T09:17:30.134Z,8.93
2023-05-09T09:19:58.574Z,8.98
2023-05-09T09:22:29.309Z,8.32
2023-05-09T09:24:55.627Z,6.95
2023-05-09T09:27:21.836Z,7.55
2023-05-09T09:29:48.051Z,6.75
2023-05-09T09:32:14.403Z,8.32
2023-05-09T09:34:41.156Z,6.85
2023-05-09T09:37:24.259Z,7.75
2023-05-09T09:39:54.493Z,7.85
2023-05-09T09:42:41.083Z,8.15
2023-05-09T09:45:16.941Z,8.38
2023-05-09T09:47:43.896Z,8.88
2023-05-09T09:50:14.387Z,7.93
2023-05-09T09:52:51.083Z,7.50
2023-05-09T09:55:21.721Z,7.40
2023-05-09T09:57:51.074Z,6.75
2023-05-09T10:00:19.101Z,8.52
2023-05-09T10:02:49.149Z,6.75
2023-05-09T10:05:19.267Z,6.50
2023-05-09T10:07:45.475Z,7.07
2023-05-09T10:10:19.189Z,7.50
2023-05-09T10:13:03.338Z,7.05
2023-05-09T10:15:38.500Z,7.60
2023-05-09T10:18:13.531Z,7.05
2023-05-09T10:20:40.202Z,9.27
2023-05-09T10:23:06.802Z,8.32
2023-05-09T10:25:53.606Z,6.97
2023-05-09T10:28:23.647Z,8.40
2023-05-09T10:30:58.434Z,7.10
2023-05-09T10:33:26.753Z,7.55
2023-05-09T10:35:54.795Z,6.50
2023-05-09T10:38:23.411Z,6.63
2023-05-09T10:40:50.286Z,7.32
2023-05-09T10:43:16.589Z,7.65
2023-05-09T10:51:07.304Z,7.38
2023-05-09T10:53:41.829Z,7.45
2023-05-09T10:56:10.409Z,7.13
2023-05-09T10:58:36.883Z,7.93
2023-05-09T11:01:06.314Z,8.23
2023-05-09T11:03:51.695Z,8.30
2023-05-09T11:06:44.445Z,7.88
2023-05-09T11:09:29.642Z,7.82
2023-05-09T11:12:01.768Z,7.55
2023-05-09T11:14:41.466Z,6.95
2023-05-09T11:17:08.799Z,5.60
2023-05-09T11:19:35.004Z,7.22
2023-05-09T11:22:11.042Z,7.88
2023-05-09T11:24:43.526Z,7.25
2023-05-09T11:27:16.851Z,8.27
2023-05-09T11:29:43.816Z,6.85
2023-05-09T11:32:13.339Z,7.32
2023-05-09T11:34:41.637Z,8.18
2023-05-09T11:37:09.582Z,7.63
2023-05-09T11:40:01.379Z,8.55
2023-05-09T11:42:27.774Z,7.78
2023-05-09T11:45:01.310Z,7.90
2023-05-09T11:47:27.675Z,7.70
2023-05-09T11:49:53.979Z,6.53
2023-05-09T11:52:20.552Z,5.20
2023-05-09T11:54:46.934Z,4.35
2023-05-09T11:57:13.517Z,6.57
2023-05-09T11:59:43.934Z,7.30
2023-05-09T12:04:36.585Z,7.47
2023-05-09T12:07:03.082Z,7.90
2023-05-09T12:09:30.337Z,9.00
2023-05-09T12:11:56.576Z,9.50
2023-05-09T12:14:33.145Z,8.38
2023-05-09T12:16:59.502Z,8.98
2023-05-09T12:19:26.481Z,7.05
2023-05-09T12:21:59.871Z,7.40
2023-05-09T12:24:26.716Z,7.95
2023-05-09T12:26:53.461Z,6.65
2023-05-09T12:29:22.445Z,6.38
2023-05-09T12:31:49.152Z,8.27
2023-05-09T12:34:15.554Z,7.30
2023-05-09T12:36:45.611Z,8.20
2023-05-09T12:39:13.177Z,8.95
2023-05-09T12:44:10.287Z,8.75
2023-05-09T12:46:37.564Z,7.65
2023-05-09T12:49:03.949Z,8.07
2023-05-09T12:51:30.160Z,7.78
2023-05-09T12:54:02.385Z,8.35
2023-05-09T12:56:33.357Z,8.30
2023-05-09T12:58:59.728Z,8.13
2023-05-09T13:01:32.029Z,7.70
2023-05-09T13:04:04.999Z,8.45
2023-05-09T13:06:31.446Z,6.75
2023-05-09T13:09:01.653Z,6.25
2023-05-09T13:11:32.826Z,6.95
2023-05-09T13:14:11.613Z,6.47
2023-05-09T13:16:40.977Z,6.50
2023-05-09T13:19:08.190Z,6.22
2023-05-09T13:21:38.758Z,6.25
2023-05-09T13:24:05.956Z,5.88
2023-05-09T13:26:34.987Z,7.05
2023-05-09T13:29:04.006Z,6.30
2023-05-09T13:31:31.696Z,5.32
2023-05-09T13:33:57.994Z,4.93
2023-05-09T13:36:27.356Z,4.10
2023-05-09T13:38:53.630Z,5.05
2023-05-09T13:41:19.907Z,4.95
2023-05-09T13:43:49.284Z,4.93
2023-05-09T13:46:15.928Z,5.53
2023-05-09T13:48:42.396Z,4.57
2023-05-09T13:51:09.004Z,6.00
2023-05-09T13:53:37.322Z,6.20
2023-05-09T13:56:07.324Z,5.60
2023-05-09T13:58:33.832Z,5.53
2023-05-09T14:01:00.126Z,5.35
2023-05-09T14:03:26.511Z,5.65
2023-05-09T14:05:55.991Z,4.45
2023-05-09T14:08:27.950Z,5.32
2023-05-09T14:10:58.218Z,4.65
2023-05-09T14:13:24.757Z,4.50
2023-05-09T14:15:51.102Z,4.55
2023-05-09T14:18:21.434Z,4.38
2023-05-09T14:23:18.409Z,4.00
2023-05-09T14:25:44.747Z,5.22
2023-05-09T14:28:11.215Z,4.32
2023-05-09T14:30:37.528Z,4.18
2023-05-09T14:33:03.842Z,3.70
2023-05-09T14:35:30.170Z,4.43
2023-05-09T14:37:56.450Z,3.50
2023-05-09T14:40:28.234Z,4.50
2023-05-09T14:42:54.560Z,4.45
2023-05-09T14:45:23.841Z,4.47
2023-05-09T14:47:50.084Z,3.80
2023-05-09T14:50:19.796Z,4.07
2023-05-09T14:52:48.794Z,4.68
2023-05-09T14:55:15.132Z,4.40
2023-05-09T14:57:47.541Z,4.72
2023-05-09T15:00:22.084Z,4.80
2023-05-09T15:02:51.163Z,4.93
2023-05-09T15:05:17.654Z,5.22
2023-05-09T15:07:43.973Z,4.85
2023-05-09T15:10:10.697Z,5.35
2023-05-09T15:12:38.720Z,4.70
2023-05-09T15:15:17.048Z,5.60
2023-05-09T15:17:44.217Z,4.97
2023-05-09T15:20:16.945Z,5.72
2023-05-09T15:22:44.314Z,5.38
2023-05-09T15:25:10.881Z,5.00
2023-05-09T15:27:37.230Z,5.20
2023-05-09T15:30:06.195Z,3.95
2023-05-09T15:32:33.688Z,3.88
2023-05-09T15:35:02.835Z,4.10
2023-05-09T15:37:29.077Z,3.80
2023-05-09T15:39:55.499Z,4.57
2023-05-09T15:42:27.247Z,4.10
2023-05-09T15:44:55.891Z,4.78
2023-05-09T15:47:23.997Z,4.30
2023-05-09T15:49:50.215Z,3.50
2023-05-09T15:52:16.547Z,3.08
2023-05-09T15:54:42.853Z,4.53
2023-05-09T15:57:14.674Z,3.80
2023-05-09T15:59:41.092Z,3.22
2023-05-09T16:02:07.427Z,3.75
2023-05-09T16:04:33.681Z,2.65
2023-05-09T16:07:00.114Z,2.85
2023-05-09T16:09:26.444Z,2.58
2023-05-09T16:11:52.919Z,1.83
2023-05-09T16:14:23.571Z,2.30
2023-05-09T16:16:50.187Z,2.03
2023-05-09T16:19:18.903Z,1.75
2023-05-09T16:21:46.243Z,1.98
2023-05-09T16:24:12.571Z,2.22
2023-05-09T16:26:38.817Z,2.40
2023-05-09T16:29:07.372Z,1.90
2023-05-09T16:31:35.497Z,1.52
2023-05-09T16:34:02.110Z,1.67
2023-05-09T16:36:28.468Z,1.35
2023-05-09T16:38:54.828Z,1.67
2023-05-09T16:41:21.092Z,1.38
2023-05-09T16:43:47.369Z,1.73
2023-05-09T16:46:18.257Z,2.05
2023-05-09T16:48:45.770Z,1.98
2023-05-09T16:51:20.357Z,2.38
2023-05-09T16:53:49.160Z,2.20
2023-05-09T16:56:18.326Z,2.25
2023-05-09T16:58:45.580Z,2.10
2023-05-09T17:01:14.552Z,2.42
2023-05-09T17:03:43.205Z,2.88
2023-05-09T17:06:09.465Z,2.70
2023-05-09T17:08:35.715Z,2.92
2023-05-09T17:11:02.000Z,2.80
2023-05-09T17:13:29.516Z,2.80
2023-05-09T17:15:56.199Z,2.67
2023-05-09T17:18:36.048Z,3.10
2023-05-09T17:21:04.216Z,3.13
2023-05-09T17:23:33.285Z,2.92
2023-05-09T17:25:59.552Z,2.90
2023-05-09T17:28:28.230Z,3.20
2023-05-09T17:30:56.955Z,3.45
2023-05-09T17:33:27.826Z,3.72
2023-05-09T17:35:54.329Z,3.90
2023-05-09T17:38:20.910Z,5.03
2023-05-09T17:40:47.192Z,4.57
2023-05-09T17:43:13.486Z,4.45
2023-05-09T17:45:39.838Z,4.40
2023-05-09T17:48:06.722Z,4.03
2023-05-09T17:50:34.114Z,4.63
2023-05-09T17:53:00.323Z,4.75
2023-05-09T17:55:26.630Z,4.35
2023-05-09T17:57:52.875Z,4.63
2023-05-09T18:00:19.193Z,5.57
2023-05-09T18:02:46.695Z,4.65
2023-05-09T18:05:13.210Z,4.80
2023-05-09T18:07:39.761Z,4.90
2023-05-09T18:10:06.530Z,4.93
2023-05-09T18:12:33.528Z,4.57
2023-05-09T18:15:02.973Z,5.25
2023-05-09T18:17:29.219Z,5.07
2023-05-09T18:19:59.012Z,6.00
2023-05-09T18:22:25.415Z,4.45
2023-05-09T18:24:53.614Z,5.45
2023-05-09T18:27:21.930Z,5.78
2023-05-09T18:29:48.265Z,5.10
2023-05-09T18:32:17.045Z,5.30
2023-05-09T18:34:43.400Z,4.50
2023-05-09T18:37:12.861Z,4.32
2023-05-09T18:39:39.253Z,5.90
2023-05-09T18:42:05.506Z,4.90
2023-05-09T18:44:31.890Z,4.22
2023-05-09T18:46:59.442Z,4.72
2023-05-09T18:49:28.080Z,4.72
2023-05-09T18:51:55.823Z,4.38
2023-05-09T18:54:22.224Z,4.72
2023-05-09T18:56:50.744Z,4.82
2023-05-09T18:59:16.966Z,4.68
2023-05-09T19:01:43.257Z,5.28
2023-05-09T19:04:09.560Z,5.20
2023-05-09T19:06:35.787Z,4.32
2023-05-09T19:09:02.014Z,4.18
2023-05-09T19:11:30.791Z,4.63
2023-05-09T19:13:57.142Z,3.95
2023-05-09T19:16:23.517Z,4.50
2023-05-09T19:18:49.893Z,5.00
2023-05-09T19:21:16.139Z,5.13
2023-05-09T19:23:42.354Z,4.95
2023-05-09T19:26:09.193Z,4.75
2023-05-09T19:28:38.353Z,5.40
2023-05-09T19:31:04.827Z,5.82
2023-05-09T19:33:33.708Z,5.75
2023-05-09T19:35:59.891Z,5.57
2023-05-09T19:38:26.411Z,4.88
2023-05-09T19:40:54.083Z,5.70
2023-05-09T19:43:20.260Z,5.18
2023-05-09T19:45:46.545Z,6.30
2023-05-09T19:48:12.837Z,5.53
2023-05-09T19:50:39.083Z,5.75
2023-05-09T19:53:05.339Z,5.93
2023-05-09T19:55:35.330Z,5.47
2023-05-09T19:58:01.701Z,5.72
2023-05-09T20:00:28.242Z,5.35
2023-05-09T20:03:00.037Z,5.53
2023-05-09T20:05:26.831Z,5.35
2023-05-09T20:07:55.510Z,5.22
2023-05-09T20:10:21.725Z,4.97
2023-05-09T20:12:51.520Z,4.72
2023-05-09T20:15:19.539Z,4.63
2023-05-09T20:17:45.843Z,3.53
2023-05-09T20:20:19.622Z,3.65
2023-05-09T20:22:45.856Z,3.33
2023-05-09T20:25:13.321Z,3.17
2023-05-09T20:27:41.636Z,2.45
2023-05-09T20:30:08.160Z,3.10
2023-05-09T20:32:37.481Z,2.22
2023-05-09T20:35:03.832Z,3.15
2023-05-09T20:37:30.083Z,2.80
2023-05-09T20:39:57.611Z,3.15
2023-05-09T20:42:26.033Z,2.72
2023-05-09T20:44:52.435Z,4.00
2023-05-09T20:47:18.902Z,4.40
2023-05-09T20:49:45.170Z,5.10
2023-05-09T20:52:14.232Z,4.30
2023-05-09T20:54:40.497Z,4.57
2023-05-09T20:57:06.780Z,5.03
2023-05-09T20:59:33.252Z,5.03
2023-05-09T21:01:59.609Z,5.03
2023-05-09T21:04:25.820Z,4.45
2023-05-09T21:06:52.028Z,5.88
2023-05-09T21:09:18.300Z,5.30
2023-05-09T21:11:44.528Z,4.95
2023-05-09T21:14:10.750Z,5.63
2023-05-09T21:16:37.166Z,6.38
2023-05-09T21:19:03.449Z,5.85
2023-05-09T21:21:29.673Z,4.40
2023-05-09T21:23:58.861Z,4.93
2023-05-09T21:26:25.123Z,5.35
2023-05-09T21:28:51.357Z,4.80
2023-05-09T21:31:17.720Z,6.60
2023-05-09T21:33:43.952Z,5.03
2023-05-09T21:36:10.160Z,5.40
2023-05-09T21:38:36.375Z,5.63
2023-05-09T21:41:04.846Z,5.38
2023-05-09T21:43:31.071Z,6.30
2023-05-09T21:45:57.369Z,6.22
2023-05-09T21:48:24.852Z,6.63
2023-05-09T21:50:51.101Z,6.40
2023-05-09T21:53:17.296Z,5.32
2023-05-09T21:55:50.320Z,6.97
2023-05-09T21:58:21.133Z,7.40
2023-05-09T22:00:48.552Z,6.72
2023-05-09T22:03:14.863Z,7.50
2023-05-09T22:05:41.129Z,7.35
2023-05-09T22:08:07.460Z,7.65
2023-05-09T22:10:33.704Z,7.18
2023-05-09T22:13:02.430Z,7.50
2023-05-09T22:15:28.640Z,7.05
2023-05-09T22:17:57.392Z,7.60
2023-05-09T22:20:28.848Z,6.93
2023-05-09T22:22:56.016Z,7.43
2023-05-09T22:25:28.437Z,8.07
2023-05-09T22:27:54.900Z,8.43
2023-05-09T22:30:28.628Z,9.05
2023-05-09T22:32:54.890Z,9.63
2023-05-09T22:35:26.389Z,8.82
2023-05-09T22:37:58.413Z,8.35
2023-05-09T22:40:24.716Z,10.02
2023-05-09T22:42:52.106Z,8.80
2023-05-09T22:45:18.595Z,9.27
2023-05-09T22:47:44.836Z,8.85
2023-05-09T22:50:13.009Z,9.75
2023-05-09T22:52:40.127Z,8.35
2023-05-09T22:55:09.203Z,9.98
2023-05-09T22:57:35.424Z,9.98
2023-05-09T23:00:01.911Z,10.70
2023-05-09T23:02:28.165Z,11.27
2023-05-09T23:04:54.478Z,11.65
2023-05-09T23:07:20.656Z,10.73
2023-05-09T23:09:46.928Z,10.60
2023-05-09T23:12:13.206Z,11.77
2023-05-09T23:14:39.400Z,11.57
2023-05-09T23:17:05.837Z,11.50
2023-05-09T23:19:36.971Z,13.18
2023-05-09T23:22:03.260Z,12.27
2023-05-09T23:24:29.450Z,12.20
2023-05-09T23:27:06.484Z,11.60
2023-05-09T23:29:35.188Z,12.50
2023-05-09T23:32:01.379Z,12.65
2023-05-09T23:34:32.231Z,13.13
2023-05-09T23:37:00.716Z,12.43
2023-05-09T23:39:26.963Z,12.07
2023-05-09T23:41:53.262Z,11.82
2023-05-09T23:44:36.835Z,13.32
2023-05-09T23:47:03.209Z,14.43
2023-05-09T23:49:32.365Z,13.93
2023-05-09T23:51:58.571Z,13.15
2023-05-09T23:54:27.098Z,15.30
2023-05-09T23:56:57.024Z,14.45
2023-05-09T23:59:23.315Z,14.25
